sensor_id;sensor_type;location;lat;lon;timestamp;temperature;humidity
66752;SHT31;53663;42.676;23.238;2023-08-06T00:01:48;19.36;80.35
66752;SHT31;53663;42.676;23.238;2023-08-06T00:04:13;19.36;81.65
66752;SHT31;53663;42.676;23.238;2023-08-06T00:06:39;19.12;80.98
66752;SHT31;53663;42.676;23.238;2023-08-06T00:09:04;19.11;82.40
66752;SHT31;53663;42.676;23.238;2023-08-06T00:11:30;19.06;83.58
66752;SHT31;53663;42.676;23.238;2023-08-06T00:13:55;19.18;82.46
66752;SHT31;53663;42.676;23.238;2023-08-06T00:16:21;19.32;80.50
66752;SHT31;53663;42.676;23.238;2023-08-06T00:18:46;19.34;80.96
66752;SHT31;53663;42.676;23.238;2023-08-06T00:21:11;19.28;80.97
66752;SHT31;53663;42.676;23.238;2023-08-06T00:23:43;19.14;81.44
66752;SHT31;53663;42.676;23.238;2023-08-06T00:26:08;19.17;81.48
66752;SHT31;53663;42.676;23.238;2023-08-06T00:28:33;19.21;82.17
66752;SHT31;53663;42.676;23.238;2023-08-06T00:30:59;19.29;82.68
66752;SHT31;53663;42.676;23.238;2023-08-06T00:33:25;19.27;81.51
66752;SHT31;53663;42.676;23.238;2023-08-06T00:35:50;19.10;82.59
66752;SHT31;53663;42.676;23.238;2023-08-06T00:38:16;19.17;83.29
66752;SHT31;53663;42.676;23.238;2023-08-06T00:40:42;19.14;83.86
66752;SHT31;53663;42.676;23.238;2023-08-06T00:43:07;19.10;82.35
66752;SHT31;53663;42.676;23.238;2023-08-06T00:45:35;18.91;83.37
66752;SHT31;53663;42.676;23.238;2023-08-06T00:48:02;18.81;83.72
66752;SHT31;53663;42.676;23.238;2023-08-06T00:50:29;18.90;84.21
66752;SHT31;53663;42.676;23.238;2023-08-06T00:52:55;18.89;83.25
66752;SHT31;53663;42.676;23.238;2023-08-06T00:55:20;18.81;82.45
66752;SHT31;53663;42.676;23.238;2023-08-06T00:57:46;18.86;82.14
66752;SHT31;53663;42.676;23.238;2023-08-06T01:00:12;18.90;82.99
66752;SHT31;53663;42.676;23.238;2023-08-06T01:02:38;19.00;83.14
66752;SHT31;53663;42.676;23.238;2023-08-06T01:05:04;19.15;83.16
66752;SHT31;53663;42.676;23.238;2023-08-06T01:13:14;19.00;83.76
66752;SHT31;53663;42.676;23.238;2023-08-06T01:15:46;19.10;83.34
66752;SHT31;53663;42.676;23.238;2023-08-06T01:18:12;19.14;82.92
66752;SHT31;53663;42.676;23.238;2023-08-06T01:20:38;19.21;82.54
66752;SHT31;53663;42.676;23.238;2023-08-06T01:23:03;19.22;82.04
66752;SHT31;53663;42.676;23.238;2023-08-06T01:25:39;19.24;81.80
66752;SHT31;53663;42.676;23.238;2023-08-06T01:28:16;19.24;81.80
66752;SHT31;53663;42.676;23.238;2023-08-06T01:30:44;19.21;81.48
66752;SHT31;53663;42.676;23.238;2023-08-06T01:33:15;19.19;82.46
66752;SHT31;53663;42.676;23.238;2023-08-06T01:35:42;19.06;82.62
66752;SHT31;53663;42.676;23.238;2023-08-06T01:38:08;19.07;82.74
66752;SHT31;53663;42.676;23.238;2023-08-06T01:40:33;19.18;82.91
66752;SHT31;53663;42.676;23.238;2023-08-06T01:43:00;19.21;82.13
66752;SHT31;53663;42.676;23.238;2023-08-06T01:45:25;19.19;82.04
66752;SHT31;53663;42.676;23.238;2023-08-06T01:47:51;19.14;82.31
66752;SHT31;53663;42.676;23.238;2023-08-06T01:50:16;19.11;82.98
66752;SHT31;53663;42.676;23.238;2023-08-06T01:52:42;19.19;83.23
66752;SHT31;53663;42.676;23.238;2023-08-06T01:55:07;19.17;82.73
66752;SHT31;53663;42.676;23.238;2023-08-06T01:57:33;19.17;83.27
66752;SHT31;53663;42.676;23.238;2023-08-06T01:59:58;19.11;83.30
66752;SHT31;53663;42.676;23.238;2023-08-06T02:02:24;19.21;83.26
66752;SHT31;53663;42.676;23.238;2023-08-06T02:04:49;19.24;82.83
66752;SHT31;53663;42.676;23.238;2023-08-06T02:07:15;19.22;82.88
66752;SHT31;53663;42.676;23.238;2023-08-06T02:09:40;19.22;83.32
66752;SHT31;53663;42.676;23.238;2023-08-06T02:12:07;19.29;83.06
66752;SHT31;53663;42.676;23.238;2023-08-06T02:14:32;19.31;82.78
66752;SHT31;53663;42.676;23.238;2023-08-06T02:16:58;19.12;82.74
66752;SHT31;53663;42.676;23.238;2023-08-06T02:19:24;18.64;83.75
66752;SHT31;53663;42.676;23.238;2023-08-06T02:21:50;18.45;85.43
66752;SHT31;53663;42.676;23.238;2023-08-06T02:24:15;18.48;85.67
66752;SHT31;53663;42.676;23.238;2023-08-06T02:26:41;18.62;85.45
66752;SHT31;53663;42.676;23.238;2023-08-06T02:29:06;18.64;86.17
66752;SHT31;53663;42.676;23.238;2023-08-06T02:31:32;18.76;85.40
66752;SHT31;53663;42.676;23.238;2023-08-06T02:33:57;18.83;85.44
66752;SHT31;53663;42.676;23.238;2023-08-06T02:36:24;18.91;85.30
66752;SHT31;53663;42.676;23.238;2023-08-06T02:38:50;18.90;84.35
66752;SHT31;53663;42.676;23.238;2023-08-06T02:41:15;18.74;84.12
66752;SHT31;53663;42.676;23.238;2023-08-06T02:43:41;18.62;84.97
66752;SHT31;53663;42.676;23.238;2023-08-06T02:46:06;18.62;84.81
66752;SHT31;53663;42.676;23.238;2023-08-06T02:48:33;18.73;85.50
66752;SHT31;53663;42.676;23.238;2023-08-06T02:50:59;18.56;84.97
66752;SHT31;53663;42.676;23.238;2023-08-06T02:53:26;18.63;85.44
66752;SHT31;53663;42.676;23.238;2023-08-06T02:55:52;18.63;85.98
66752;SHT31;53663;42.676;23.238;2023-08-06T02:58:23;18.71;86.09
66752;SHT31;53663;42.676;23.238;2023-08-06T03:01:03;18.81;86.36
66752;SHT31;53663;42.676;23.238;2023-08-06T03:03:31;18.79;86.07
66752;SHT31;53663;42.676;23.238;2023-08-06T03:05:59;18.81;86.70
66752;SHT31;53663;42.676;23.238;2023-08-06T03:08:38;18.77;87.08
66752;SHT31;53663;42.676;23.238;2023-08-06T03:11:04;18.70;87.35
66752;SHT31;53663;42.676;23.238;2023-08-06T03:13:30;18.24;87.41
66752;SHT31;53663;42.676;23.238;2023-08-06T03:15:58;18.12;87.53
66752;SHT31;53663;42.676;23.238;2023-08-06T03:18:25;18.28;87.47
66752;SHT31;53663;42.676;23.238;2023-08-06T03:20:51;18.35;87.44
66752;SHT31;53663;42.676;23.238;2023-08-06T03:23:17;18.31;87.85
66752;SHT31;53663;42.676;23.238;2023-08-06T03:25:44;18.09;89.01
66752;SHT31;53663;42.676;23.238;2023-08-06T03:28:10;18.36;89.16
66752;SHT31;53663;42.676;23.238;2023-08-06T03:30:35;18.55;88.43
66752;SHT31;53663;42.676;23.238;2023-08-06T03:33:02;18.66;88.07
66752;SHT31;53663;42.676;23.238;2023-08-06T03:35:27;18.77;87.73
66752;SHT31;53663;42.676;23.238;2023-08-06T03:37:53;18.86;87.48
66752;SHT31;53663;42.676;23.238;2023-08-06T03:40:18;18.90;87.26
66752;SHT31;53663;42.676;23.238;2023-08-06T03:42:44;18.96;87.04
66752;SHT31;53663;42.676;23.238;2023-08-06T03:45:10;18.98;87.05
66752;SHT31;53663;42.676;23.238;2023-08-06T03:47:36;18.96;86.79
66752;SHT31;53663;42.676;23.238;2023-08-06T03:50:02;19.08;86.41
66752;SHT31;53663;42.676;23.238;2023-08-06T03:52:29;19.12;85.98
66752;SHT31;53663;42.676;23.238;2023-08-06T03:54:54;19.14;85.72
66752;SHT31;53663;42.676;23.238;2023-08-06T03:57:20;19.07;84.85
66752;SHT31;53663;42.676;23.238;2023-08-06T03:59:45;19.00;85.34
66752;SHT31;53663;42.676;23.238;2023-08-06T04:02:11;18.80;85.72
66752;SHT31;53663;42.676;23.238;2023-08-06T04:04:37;18.56;86.51
66752;SHT31;53663;42.676;23.238;2023-08-06T04:07:03;18.69;86.41
66752;SHT31;53663;42.676;23.238;2023-08-06T04:09:29;18.87;86.40
66752;SHT31;53663;42.676;23.238;2023-08-06T04:11:55;18.81;85.34
66752;SHT31;53663;42.676;23.238;2023-08-06T04:14:21;18.86;85.43
66752;SHT31;53663;42.676;23.238;2023-08-06T04:16:46;18.84;85.45
66752;SHT31;53663;42.676;23.238;2023-08-06T04:19:13;18.89;85.89
66752;SHT31;53663;42.676;23.238;2023-08-06T04:21:40;18.94;85.75
66752;SHT31;53663;42.676;23.238;2023-08-06T04:24:06;18.93;85.35
66752;SHT31;53663;42.676;23.238;2023-08-06T04:26:31;18.80;85.36
66752;SHT31;53663;42.676;23.238;2023-08-06T04:28:57;18.86;85.28
66752;SHT31;53663;42.676;23.238;2023-08-06T04:31:23;18.91;85.67
66752;SHT31;53663;42.676;23.238;2023-08-06T04:33:49;19.10;86.03
66752;SHT31;53663;42.676;23.238;2023-08-06T04:36:15;19.18;85.88
66752;SHT31;53663;42.676;23.238;2023-08-06T04:38:41;19.32;85.65
66752;SHT31;53663;42.676;23.238;2023-08-06T04:41:10;19.39;85.62
66752;SHT31;53663;42.676;23.238;2023-08-06T04:43:36;19.42;85.42
66752;SHT31;53663;42.676;23.238;2023-08-06T04:46:02;19.49;85.58
66752;SHT31;53663;42.676;23.238;2023-08-06T04:48:28;19.54;85.66
66752;SHT31;53663;42.676;23.238;2023-08-06T04:50:53;19.62;85.47
66752;SHT31;53663;42.676;23.238;2023-08-06T04:53:19;19.65;85.44
66752;SHT31;53663;42.676;23.238;2023-08-06T04:55:45;19.61;85.20
66752;SHT31;53663;42.676;23.238;2023-08-06T04:58:11;19.63;85.38
66752;SHT31;53663;42.676;23.238;2023-08-06T05:00:37;19.68;84.41
66752;SHT31;53663;42.676;23.238;2023-08-06T05:03:03;19.77;84.12
66752;SHT31;53663;42.676;23.238;2023-08-06T05:05:28;19.87;83.44
66752;SHT31;53663;42.676;23.238;2023-08-06T05:07:56;19.98;82.89
66752;SHT31;53663;42.676;23.238;2023-08-06T05:10:24;21.14;80.95
66752;SHT31;53663;42.676;23.238;2023-08-06T05:12:50;21.62;78.77
66752;SHT31;53663;42.676;23.238;2023-08-06T05:15:15;22.94;74.48
66752;SHT31;53663;42.676;23.238;2023-08-06T05:17:41;24.24;71.07
66752;SHT31;53663;42.676;23.238;2023-08-06T05:20:07;25.64;66.67
66752;SHT31;53663;42.676;23.238;2023-08-06T05:22:32;27.14;61.59
66752;SHT31;53663;42.676;23.238;2023-08-06T05:24:58;28.31;58.16
66752;SHT31;53663;42.676;23.238;2023-08-06T05:27:23;28.80;54.94
66752;SHT31;53663;42.676;23.238;2023-08-06T05:29:49;29.35;53.72
66752;SHT31;53663;42.676;23.238;2023-08-06T05:32:14;29.12;54.28
66752;SHT31;53663;42.676;23.238;2023-08-06T05:34:40;28.41;55.39
66752;SHT31;53663;42.676;23.238;2023-08-06T05:37:06;27.83;57.72
66752;SHT31;53663;42.676;23.238;2023-08-06T05:39:32;27.18;58.59
66752;SHT31;53663;42.676;23.238;2023-08-06T05:41:57;26.77;60.38
66752;SHT31;53663;42.676;23.238;2023-08-06T05:44:23;26.84;60.93
66752;SHT31;53663;42.676;23.238;2023-08-06T05:46:49;27.49;59.16
66752;SHT31;53663;42.676;23.238;2023-08-06T05:49:15;27.24;58.53
66752;SHT31;53663;42.676;23.238;2023-08-06T05:51:41;26.74;59.39
66752;SHT31;53663;42.676;23.238;2023-08-06T05:54:07;26.49;60.16
66752;SHT31;53663;42.676;23.238;2023-08-06T05:56:32;26.12;59.80
66752;SHT31;53663;42.676;23.238;2023-08-06T05:58:58;25.89;59.73
66752;SHT31;53663;42.676;23.238;2023-08-06T06:01:23;26.94;57.73
66752;SHT31;53663;42.676;23.238;2023-08-06T06:03:48;27.71;54.56
66752;SHT31;53663;42.676;23.238;2023-08-06T06:06:14;28.58;53.22
66752;SHT31;53663;42.676;23.238;2023-08-06T06:08:40;28.11;52.51
66752;SHT31;53663;42.676;23.238;2023-08-06T06:11:06;28.45;51.79
66752;SHT31;53663;42.676;23.238;2023-08-06T06:13:31;28.03;53.08
66752;SHT31;53663;42.676;23.238;2023-08-06T06:15:56;27.02;54.73
66752;SHT31;53663;42.676;23.238;2023-08-06T06:18:22;26.57;55.80
66752;SHT31;53663;42.676;23.238;2023-08-06T06:20:48;26.13;57.64
66752;SHT31;53663;42.676;23.238;2023-08-06T06:23:13;26.69;57.42
66752;SHT31;53663;42.676;23.238;2023-08-06T06:25:49;26.65;58.09
66752;SHT31;53663;42.676;23.238;2023-08-06T06:28:17;25.98;58.18
66752;SHT31;53663;42.676;23.238;2023-08-06T06:30:43;25.57;59.67
66752;SHT31;53663;42.676;23.238;2023-08-06T06:33:08;25.20;61.11
66752;SHT31;53663;42.676;23.238;2023-08-06T06:35:34;24.83;60.75
66752;SHT31;53663;42.676;23.238;2023-08-06T06:37:59;24.44;62.63
66752;SHT31;53663;42.676;23.238;2023-08-06T06:40:25;24.20;62.93
66752;SHT31;53663;42.676;23.238;2023-08-06T06:42:51;23.94;64.49
66752;SHT31;53663;42.676;23.238;2023-08-06T06:45:16;23.89;65.66
66752;SHT31;53663;42.676;23.238;2023-08-06T06:47:42;23.82;64.56
66752;SHT31;53663;42.676;23.238;2023-08-06T06:50:08;23.92;63.06
66752;SHT31;53663;42.676;23.238;2023-08-06T06:52:33;24.17;62.00
66752;SHT31;53663;42.676;23.238;2023-08-06T06:54:59;24.16;61.26
66752;SHT31;53663;42.676;23.238;2023-08-06T06:57:24;24.24;61.87
66752;SHT31;53663;42.676;23.238;2023-08-06T06:59:50;24.41;61.62
66752;SHT31;53663;42.676;23.238;2023-08-06T07:02:15;24.52;59.98
66752;SHT31;53663;42.676;23.238;2023-08-06T07:04:41;24.62;59.01
66752;SHT31;53663;42.676;23.238;2023-08-06T07:07:06;24.76;58.23
66752;SHT31;53663;42.676;23.238;2023-08-06T07:09:32;24.98;57.99
66752;SHT31;53663;42.676;23.238;2023-08-06T07:11:57;25.12;57.51
66752;SHT31;53663;42.676;23.238;2023-08-06T07:14:25;25.60;56.96
66752;SHT31;53663;42.676;23.238;2023-08-06T07:16:51;25.53;57.54
66752;SHT31;53663;42.676;23.238;2023-08-06T07:19:16;26.06;56.10
66752;SHT31;53663;42.676;23.238;2023-08-06T07:21:42;26.57;55.25
66752;SHT31;53663;42.676;23.238;2023-08-06T07:24:07;26.86;52.75
66752;SHT31;53663;42.676;23.238;2023-08-06T07:26:33;27.07;51.06
66752;SHT31;53663;42.676;23.238;2023-08-06T07:28:58;27.24;50.33
66752;SHT31;53663;42.676;23.238;2023-08-06T07:31:24;27.58;49.71
66752;SHT31;53663;42.676;23.238;2023-08-06T07:33:49;27.50;50.52
66752;SHT31;53663;42.676;23.238;2023-08-06T07:36:15;27.76;51.15
66752;SHT31;53663;42.676;23.238;2023-08-06T07:38:41;28.18;47.68
66752;SHT31;53663;42.676;23.238;2023-08-06T07:41:07;28.49;47.20
66752;SHT31;53663;42.676;23.238;2023-08-06T07:43:32;28.55;47.27
66752;SHT31;53663;42.676;23.238;2023-08-06T07:46:01;28.65;48.15
66752;SHT31;53663;42.676;23.238;2023-08-06T07:48:28;28.58;45.89
66752;SHT31;53663;42.676;23.238;2023-08-06T07:50:54;28.56;47.35
66752;SHT31;53663;42.676;23.238;2023-08-06T07:53:21;28.31;47.92
66752;SHT31;53663;42.676;23.238;2023-08-06T07:55:54;27.74;48.23
66752;SHT31;53663;42.676;23.238;2023-08-06T07:58:20;27.22;47.91
66752;SHT31;53663;42.676;23.238;2023-08-06T08:00:46;27.16;48.91
66752;SHT31;53663;42.676;23.238;2023-08-06T08:03:15;27.29;49.99
66752;SHT31;53663;42.676;23.238;2023-08-06T08:05:42;27.43;49.13
66752;SHT31;53663;42.676;23.238;2023-08-06T08:08:08;27.58;47.85
66752;SHT31;53663;42.676;23.238;2023-08-06T08:10:34;27.35;48.65
66752;SHT31;53663;42.676;23.238;2023-08-06T08:13:03;27.18;49.92
66752;SHT31;53663;42.676;23.238;2023-08-06T08:15:29;27.45;49.19
66752;SHT31;53663;42.676;23.238;2023-08-06T08:17:55;27.31;49.59
66752;SHT31;53663;42.676;23.238;2023-08-06T08:20:21;27.71;48.87
66752;SHT31;53663;42.676;23.238;2023-08-06T08:22:47;28.10;46.68
66752;SHT31;53663;42.676;23.238;2023-08-06T08:25:13;27.18;48.48
66752;SHT31;53663;42.676;23.238;2023-08-06T08:27:39;27.46;49.19
66752;SHT31;53663;42.676;23.238;2023-08-06T08:30:05;27.63;48.49
66752;SHT31;53663;42.676;23.238;2023-08-06T08:32:32;27.94;47.18
66752;SHT31;53663;42.676;23.238;2023-08-06T08:34:58;27.32;48.03
66752;SHT31;53663;42.676;23.238;2023-08-06T08:37:23;27.62;47.12
66752;SHT31;53663;42.676;23.238;2023-08-06T08:39:49;27.60;47.52
66752;SHT31;53663;42.676;23.238;2023-08-06T08:42:16;27.80;45.95
66752;SHT31;53663;42.676;23.238;2023-08-06T08:44:42;27.07;48.88
66752;SHT31;53663;42.676;23.238;2023-08-06T08:47:09;27.01;48.40
66752;SHT31;53663;42.676;23.238;2023-08-06T08:49:35;27.12;48.04
66752;SHT31;53663;42.676;23.238;2023-08-06T08:52:02;27.39;48.47
66752;SHT31;53663;42.676;23.238;2023-08-06T08:54:28;27.63;48.15
66752;SHT31;53663;42.676;23.238;2023-08-06T08:56:54;28.14;47.72
66752;SHT31;53663;42.676;23.238;2023-08-06T08:59:20;28.58;45.44
66752;SHT31;53663;42.676;23.238;2023-08-06T09:01:47;28.91;45.36
66752;SHT31;53663;42.676;23.238;2023-08-06T09:04:16;29.13;45.02
66752;SHT31;53663;42.676;23.238;2023-08-06T09:06:42;29.29;43.76
66752;SHT31;53663;42.676;23.238;2023-08-06T09:09:17;29.17;42.96
66752;SHT31;53663;42.676;23.238;2023-08-06T09:11:45;28.86;44.73
66752;SHT31;53663;42.676;23.238;2023-08-06T09:14:14;28.91;44.32
66752;SHT31;53663;42.676;23.238;2023-08-06T09:16:40;29.02;43.33
66752;SHT31;53663;42.676;23.238;2023-08-06T09:19:09;28.96;43.66
66752;SHT31;53663;42.676;23.238;2023-08-06T09:21:39;29.20;40.85
66752;SHT31;53663;42.676;23.238;2023-08-06T09:24:09;28.91;42.20
66752;SHT31;53663;42.676;23.238;2023-08-06T09:26:44;29.04;42.64
66752;SHT31;53663;42.676;23.238;2023-08-06T09:29:10;28.76;43.98
66752;SHT31;53663;42.676;23.238;2023-08-06T09:31:46;28.55;44.43
66752;SHT31;53663;42.676;23.238;2023-08-06T09:37:00;28.31;45.61
66752;SHT31;53663;42.676;23.238;2023-08-06T09:39:30;28.35;44.82
66752;SHT31;53663;42.676;23.238;2023-08-06T09:41:57;28.21;46.02
66752;SHT31;53663;42.676;23.238;2023-08-06T09:44:24;28.17;46.40
66752;SHT31;53663;42.676;23.238;2023-08-06T09:46:54;28.43;45.98
66752;SHT31;53663;42.676;23.238;2023-08-06T09:49:40;28.31;47.15
66752;SHT31;53663;42.676;23.238;2023-08-06T09:52:11;28.14;45.28
66752;SHT31;53663;42.676;23.238;2023-08-06T09:54:37;28.03;45.51
66752;SHT31;53663;42.676;23.238;2023-08-06T09:57:03;27.89;44.99
66752;SHT31;53663;42.676;23.238;2023-08-06T09:59:30;27.85;46.05
66752;SHT31;53663;42.676;23.238;2023-08-06T10:01:57;27.74;45.67
66752;SHT31;53663;42.676;23.238;2023-08-06T10:04:24;27.56;45.77
66752;SHT31;53663;42.676;23.238;2023-08-06T10:06:49;27.58;46.35
66752;SHT31;53663;42.676;23.238;2023-08-06T10:09:15;28.07;45.11
66752;SHT31;53663;42.676;23.238;2023-08-06T10:11:48;28.22;44.78
66752;SHT31;53663;42.676;23.238;2023-08-06T10:14:28;28.16;44.67
66752;SHT31;53663;42.676;23.238;2023-08-06T10:16:57;27.86;45.53
66752;SHT31;53663;42.676;23.238;2023-08-06T10:19:25;27.67;45.13
66752;SHT31;53663;42.676;23.238;2023-08-06T10:22:17;27.63;45.70
66752;SHT31;53663;42.676;23.238;2023-08-06T10:29:47;28.04;45.49
66752;SHT31;53663;42.676;23.238;2023-08-06T10:32:13;28.13;45.98
66752;SHT31;53663;42.676;23.238;2023-08-06T10:37:25;28.08;44.40
66752;SHT31;53663;42.676;23.238;2023-08-06T10:39:59;27.94;45.70
66752;SHT31;53663;42.676;23.238;2023-08-06T10:42:29;27.67;45.37
66752;SHT31;53663;42.676;23.238;2023-08-06T10:45:16;27.49;46.17
66752;SHT31;53663;42.676;23.238;2023-08-06T10:47:43;27.49;46.28
66752;SHT31;53663;42.676;23.238;2023-08-06T10:50:15;27.38;46.08
66752;SHT31;53663;42.676;23.238;2023-08-06T10:52:43;27.24;46.41
66752;SHT31;53663;42.676;23.238;2023-08-06T10:55:09;27.32;47.09
66752;SHT31;53663;42.676;23.238;2023-08-06T10:57:35;27.39;48.80
66752;SHT31;53663;42.676;23.238;2023-08-06T11:00:00;27.55;46.77
66752;SHT31;53663;42.676;23.238;2023-08-06T11:02:26;27.74;47.65
66752;SHT31;53663;42.676;23.238;2023-08-06T11:04:52;27.83;46.82
66752;SHT31;53663;42.676;23.238;2023-08-06T11:07:17;27.71;47.04
66752;SHT31;53663;42.676;23.238;2023-08-06T11:09:43;27.56;49.29
66752;SHT31;53663;42.676;23.238;2023-08-06T11:12:11;27.28;49.93
66752;SHT31;53663;42.676;23.238;2023-08-06T11:14:37;26.79;52.55
66752;SHT31;53663;42.676;23.238;2023-08-06T11:17:05;26.29;54.70
66752;SHT31;53663;42.676;23.238;2023-08-06T11:19:30;25.96;56.75
66752;SHT31;53663;42.676;23.238;2023-08-06T11:21:56;25.84;60.48
66752;SHT31;53663;42.676;23.238;2023-08-06T11:24:24;25.65;61.00
66752;SHT31;53663;42.676;23.238;2023-08-06T11:26:49;25.44;60.45
66752;SHT31;53663;42.676;23.238;2023-08-06T11:29:15;25.40;60.44
66752;SHT31;53663;42.676;23.238;2023-08-06T11:31:41;25.53;60.34
66752;SHT31;53663;42.676;23.238;2023-08-06T11:34:06;25.74;60.18
66752;SHT31;53663;42.676;23.238;2023-08-06T11:36:33;25.88;57.69
66752;SHT31;53663;42.676;23.238;2023-08-06T11:39:00;25.81;56.94
66752;SHT31;53663;42.676;23.238;2023-08-06T11:41:30;25.85;56.50
66752;SHT31;53663;42.676;23.238;2023-08-06T11:43:56;25.99;56.50
66752;SHT31;53663;42.676;23.238;2023-08-06T11:46:22;26.28;56.02
66752;SHT31;53663;42.676;23.238;2023-08-06T11:48:55;26.70;55.27
66752;SHT31;53663;42.676;23.238;2023-08-06T11:51:24;26.94;53.94
66752;SHT31;53663;42.676;23.238;2023-08-06T11:53:55;26.91;50.99
66752;SHT31;53663;42.676;23.238;2023-08-06T11:56:21;27.00;52.24
66752;SHT31;53663;42.676;23.238;2023-08-06T11:58:47;27.16;48.76
66752;SHT31;53663;42.676;23.238;2023-08-06T12:01:13;27.22;48.69
66752;SHT31;53663;42.676;23.238;2023-08-06T12:03:40;27.49;47.80
66752;SHT31;53663;42.676;23.238;2023-08-06T12:06:05;27.62;49.34
66752;SHT31;53663;42.676;23.238;2023-08-06T12:08:32;27.76;49.57
66752;SHT31;53663;42.676;23.238;2023-08-06T12:10:58;27.80;48.19
66752;SHT31;53663;42.676;23.238;2023-08-06T12:13:24;27.71;47.97
66752;SHT31;53663;42.676;23.238;2023-08-06T12:15:49;27.63;47.77
66752;SHT31;53663;42.676;23.238;2023-08-06T12:18:18;27.66;48.93
66752;SHT31;53663;42.676;23.238;2023-08-06T12:20:43;27.41;49.05
66752;SHT31;53663;42.676;23.238;2023-08-06T12:23:09;27.37;49.05
66752;SHT31;53663;42.676;23.238;2023-08-06T12:25:35;27.53;50.41
66752;SHT31;53663;42.676;23.238;2023-08-06T12:28:01;27.43;47.14
66752;SHT31;53663;42.676;23.238;2023-08-06T12:30:26;27.38;46.98
66752;SHT31;53663;42.676;23.238;2023-08-06T12:32:52;27.32;49.06
66752;SHT31;53663;42.676;23.238;2023-08-06T12:35:17;27.34;47.00
66752;SHT31;53663;42.676;23.238;2023-08-06T12:37:43;27.41;47.24
66752;SHT31;53663;42.676;23.238;2023-08-06T12:40:09;27.43;46.86
66752;SHT31;53663;42.676;23.238;2023-08-06T12:42:35;27.56;48.00
66752;SHT31;53663;42.676;23.238;2023-08-06T12:45:01;27.65;48.79
66752;SHT31;53663;42.676;23.238;2023-08-06T12:47:26;27.79;47.78
66752;SHT31;53663;42.676;23.238;2023-08-06T12:49:52;27.82;48.22
66752;SHT31;53663;42.676;23.238;2023-08-06T12:52:17;27.83;47.50
66752;SHT31;53663;42.676;23.238;2023-08-06T12:54:45;27.93;46.92
66752;SHT31;53663;42.676;23.238;2023-08-06T12:57:11;27.90;45.64
66752;SHT31;53663;42.676;23.238;2023-08-06T12:59:37;27.89;45.91
66752;SHT31;53663;42.676;23.238;2023-08-06T13:02:03;27.83;46.26
66752;SHT31;53663;42.676;23.238;2023-08-06T13:04:29;27.85;47.09
66752;SHT31;53663;42.676;23.238;2023-08-06T13:06:55;27.90;47.62
66752;SHT31;53663;42.676;23.238;2023-08-06T13:09:20;27.89;47.40
66752;SHT31;53663;42.676;23.238;2023-08-06T13:11:46;27.79;47.03
66752;SHT31;53663;42.676;23.238;2023-08-06T13:14:15;27.77;48.32
66752;SHT31;53663;42.676;23.238;2023-08-06T13:16:42;27.76;47.82
66752;SHT31;53663;42.676;23.238;2023-08-06T13:19:08;27.41;48.67
66752;SHT31;53663;42.676;23.238;2023-08-06T13:21:48;27.34;49.26
66752;SHT31;53663;42.676;23.238;2023-08-06T13:24:17;27.35;49.25
66752;SHT31;53663;42.676;23.238;2023-08-06T13:26:42;27.32;48.03
66752;SHT31;53663;42.676;23.238;2023-08-06T13:29:08;27.29;48.36
66752;SHT31;53663;42.676;23.238;2023-08-06T13:31:33;27.34;48.81
66752;SHT31;53663;42.676;23.238;2023-08-06T13:33:58;27.10;48.46
66752;SHT31;53663;42.676;23.238;2023-08-06T13:36:25;26.98;49.15
66752;SHT31;53663;42.676;23.238;2023-08-06T13:38:51;26.97;48.84
66752;SHT31;53663;42.676;23.238;2023-08-06T13:41:17;26.97;48.88
66752;SHT31;53663;42.676;23.238;2023-08-06T13:43:42;27.04;48.59
66752;SHT31;53663;42.676;23.238;2023-08-06T13:46:09;27.37;47.92
66752;SHT31;53663;42.676;23.238;2023-08-06T13:48:35;27.67;47.61
66752;SHT31;53663;42.676;23.238;2023-08-06T13:51:00;27.87;46.52
66752;SHT31;53663;42.676;23.238;2023-08-06T13:53:26;27.89;46.66
66752;SHT31;53663;42.676;23.238;2023-08-06T13:55:55;27.90;46.57
66752;SHT31;53663;42.676;23.238;2023-08-06T13:58:22;27.70;45.63
66752;SHT31;53663;42.676;23.238;2023-08-06T14:00:47;27.74;45.74
66752;SHT31;53663;42.676;23.238;2023-08-06T14:03:13;27.62;46.13
66752;SHT31;53663;42.676;23.238;2023-08-06T14:05:39;27.58;46.26
66752;SHT31;53663;42.676;23.238;2023-08-06T14:08:04;27.48;45.65
66752;SHT31;53663;42.676;23.238;2023-08-06T14:10:30;27.48;46.07
66752;SHT31;53663;42.676;23.238;2023-08-06T14:12:56;27.46;45.59
66752;SHT31;53663;42.676;23.238;2023-08-06T14:15:21;27.37;46.04
66752;SHT31;53663;42.676;23.238;2023-08-06T14:17:47;27.32;45.56
66752;SHT31;53663;42.676;23.238;2023-08-06T14:20:12;27.35;45.09
66752;SHT31;53663;42.676;23.238;2023-08-06T14:22:38;27.34;46.14
66752;SHT31;53663;42.676;23.238;2023-08-06T14:25:04;27.31;46.83
66752;SHT31;53663;42.676;23.238;2023-08-06T14:27:30;27.34;45.70
66752;SHT31;53663;42.676;23.238;2023-08-06T14:29:55;27.43;45.27
66752;SHT31;53663;42.676;23.238;2023-08-06T14:32:21;27.46;43.63
66752;SHT31;53663;42.676;23.238;2023-08-06T14:34:47;27.49;44.05
66752;SHT31;53663;42.676;23.238;2023-08-06T14:37:12;27.53;43.87
66752;SHT31;53663;42.676;23.238;2023-08-06T14:39:38;27.49;44.06
66752;SHT31;53663;42.676;23.238;2023-08-06T14:42:04;27.42;43.34
66752;SHT31;53663;42.676;23.238;2023-08-06T14:44:30;27.42;42.27
66752;SHT31;53663;42.676;23.238;2023-08-06T14:46:56;27.41;42.17
66752;SHT31;53663;42.676;23.238;2023-08-06T14:49:21;27.39;44.03
66752;SHT31;53663;42.676;23.238;2023-08-06T14:51:47;27.39;43.61
66752;SHT31;53663;42.676;23.238;2023-08-06T14:54:12;27.41;43.24
66752;SHT31;53663;42.676;23.238;2023-08-06T14:56:38;27.39;43.14
66752;SHT31;53663;42.676;23.238;2023-08-06T14:59:03;27.14;41.41
66752;SHT31;53663;42.676;23.238;2023-08-06T15:01:29;27.21;43.33
66752;SHT31;53663;42.676;23.238;2023-08-06T15:03:55;27.28;42.65
66752;SHT31;53663;42.676;23.238;2023-08-06T15:06:20;27.32;43.64
66752;SHT31;53663;42.676;23.238;2023-08-06T15:08:46;27.25;43.88
66752;SHT31;53663;42.676;23.238;2023-08-06T15:11:13;27.24;43.31
66752;SHT31;53663;42.676;23.238;2023-08-06T15:13:39;27.27;42.79
66752;SHT31;53663;42.676;23.238;2023-08-06T15:16:04;27.22;43.02
66752;SHT31;53663;42.676;23.238;2023-08-06T15:18:30;27.15;44.06
66752;SHT31;53663;42.676;23.238;2023-08-06T15:20:55;27.16;45.60
66752;SHT31;53663;42.676;23.238;2023-08-06T15:23:22;27.12;46.85
66752;SHT31;53663;42.676;23.238;2023-08-06T15:25:48;27.12;46.41
66752;SHT31;53663;42.676;23.238;2023-08-06T15:28:13;27.12;47.35